Time;durP1;ratioP1;P1;durP2;ratioP2;P2;SDS_P1;SDS_P2;PMS_P1;PMS_P2;Temp;Humidity;BMP_temperature;BMP_pressure;BME280_temperature;BME280_humidity;BME280_pressure;Samples;Min_cycle;Max_cycle;Signal;HPM_P1;HPM_P2
2022/11/03 00:01:53;;;;;;;33.80;18.25;;;17.90;99.90;;;;;;5058894;28;20493;-73
2022/11/03 00:04:22;;;;;;;31.33;18.83;;;17.90;99.90;;;;;;5073930;28;20090;-73
2022/11/03 00:06:52;;;;;;;26.00;17.10;;;17.90;99.90;;;;;;5065764;28;20123;-73
2022/11/03 00:09:21;;;;;;;27.60;18.00;;;17.90;99.90;;;;;;5049310;28;20048;-72
2022/11/03 00:11:50;;;;;;;26.50;17.55;;;17.90;99.90;;;;;;5078312;28;20135;-78
2022/11/03 00:14:18;;;;;;;31.95;18.70;;;17.90;99.90;;;;;;5062882;28;20036;-76
2022/11/03 00:16:47;;;;;;;28.98;19.38;;;18.00;99.90;;;;;;5057672;28;20105;-76
2022/11/03 00:19:15;;;;;;;29.70;20.55;;;18.00;99.90;;;;;;5075692;28;20410;-73
2022/11/03 00:21:44;;;;;;;32.03;19.25;;;18.00;99.90;;;;;;5064616;28;20048;-74
2022/11/03 00:24:12;;;;;;;28.73;19.15;;;18.00;99.90;;;;;;5057009;28;20126;-78
2022/11/03 00:26:41;;;;;;;46.55;20.58;;;17.90;99.90;;;;;;5064720;28;20139;-77
2022/11/03 00:29:12;;;;;;;28.67;19.42;;;18.00;99.90;;;;;;5057764;28;20056;-73
2022/11/03 00:31:42;;;;;;;34.75;20.30;;;18.00;99.90;;;;;;5058499;28;20525;-74
2022/11/03 00:34:10;;;;;;;28.52;18.42;;;18.00;99.90;;;;;;5071651;28;20130;-73
2022/11/03 00:36:42;;;;;;;34.00;20.10;;;18.00;99.90;;;;;;5063163;28;20076;-73
2022/11/03 00:39:11;;;;;;;30.48;19.45;;;17.90;99.90;;;;;;5060165;28;20079;-75
2022/11/03 00:41:39;;;;;;;34.63;18.70;;;17.90;99.90;;;;;;5058559;28;20101;-72
2022/11/03 00:44:09;;;;;;;36.10;20.05;;;17.90;99.90;;;;;;5059475;28;20079;-73
2022/11/03 00:46:37;;;;;;;35.58;19.73;;;17.90;99.90;;;;;;5057835;28;20448;-76
2022/11/03 00:49:04;;;;;;;27.00;18.52;;;17.90;99.90;;;;;;5072200;28;20052;-74
2022/11/03 00:51:35;;;;;;;31.65;20.55;;;17.90;99.90;;;;;;5074189;28;20048;-73
2022/11/03 00:54:04;;;;;;;33.60;19.35;;;17.90;99.90;;;;;;5070438;28;20494;-73
2022/11/03 00:56:34;;;;;;;36.25;18.67;;;17.80;99.90;;;;;;5084599;28;20502;-73
2022/11/03 00:59:03;;;;;;;36.25;20.92;;;17.80;99.90;;;;;;5057762;28;20040;-73
2022/11/03 01:01:36;;;;;;;31.35;18.63;;;17.80;99.90;;;;;;5065067;28;20068;-73
2022/11/03 01:06:56;;;;;;;29.88;17.65;;;17.70;99.90;;;;;;5073258;28;20044;-73
2022/11/03 01:09:50;;;;;;;26.50;16.90;;;17.70;99.90;;;;;;5056879;28;20068;-73
2022/11/03 01:12:18;;;;;;;30.67;16.77;;;17.70;99.90;;;;;;5073307;28;20059;-77
2022/11/03 01:14:51;;;;;;;23.85;15.95;;;17.70;99.90;;;;;;5069001;28;20685;-74
2022/11/03 01:17:21;;;;;;;30.35;15.57;;;17.70;99.90;;;;;;5061979;28;20045;-73
2022/11/03 01:19:49;;;;;;;24.20;16.83;;;17.70;99.90;;;;;;5079845;28;20075;-76
2022/11/03 01:22:17;;;;;;;25.33;16.48;;;17.70;99.90;;;;;;5065608;28;20047;-73
2022/11/03 01:24:46;;;;;;;25.88;15.52;;;17.70;99.90;;;;;;5039225;28;20074;-75
2022/11/03 01:27:16;;;;;;;20.25;15.48;;;17.70;99.90;;;;;;5076162;28;20052;-74
2022/11/03 01:29:44;;;;;;;27.00;15.30;;;17.70;99.90;;;;;;5074209;28;20048;-73
2022/11/03 01:32:11;;;;;;;26.33;16.05;;;17.70;99.90;;;;;;5076374;28;20456;-73
2022/11/03 01:34:39;;;;;;;20.83;14.45;;;17.70;99.90;;;;;;5074105;28;20044;-74
2022/11/03 01:37:07;;;;;;;23.13;14.38;;;17.80;99.90;;;;;;5070421;28;20076;-74
2022/11/03 01:39:35;;;;;;;21.80;14.57;;;17.70;99.90;;;;;;5045087;28;20053;-73
2022/11/03 01:42:03;;;;;;;22.60;15.45;;;17.70;99.90;;;;;;5056015;28;20418;-73
2022/11/03 01:44:44;;;;;;;18.75;14.70;;;17.70;99.90;;;;;;5073886;28;20048;-73
2022/11/03 01:47:18;;;;;;;20.73;15.00;;;17.70;99.90;;;;;;5047450;28;20048;-74
2022/11/03 01:49:55;;;;;;;23.55;14.95;;;17.70;99.90;;;;;;5085041;28;20430;-74
2022/11/03 01:52:45;;;;;;;26.60;15.52;;;17.70;99.90;;;;;;5065721;28;20040;-74
2022/11/03 01:55:17;;;;;;;23.27;14.25;;;17.70;99.90;;;;;;5070076;28;20048;-74
2022/11/03 01:58:10;;;;;;;25.63;14.75;;;17.70;99.90;;;;;;5047065;28;20137;-73
2022/11/03 02:00:40;;;;;;;28.40;15.88;;;17.70;99.90;;;;;;5037700;28;20102;-73
2022/11/03 02:03:09;;;;;;;22.77;14.32;;;17.70;99.90;;;;;;5070631;28;20154;-73
2022/11/03 02:05:37;;;;;;;24.20;15.15;;;17.60;99.90;;;;;;5072336;28;20189;-72
2022/11/03 02:08:11;;;;;;;22.73;14.40;;;17.60;99.90;;;;;;5070751;28;20556;-74
2022/11/03 02:10:39;;;;;;;24.73;14.20;;;17.60;99.90;;;;;;5054002;28;20060;-73
2022/11/03 02:13:19;;;;;;;23.30;15.85;;;17.60;99.90;;;;;;5070505;28;20562;-74
2022/11/03 02:15:49;;;;;;;25.95;16.17;;;17.60;99.90;;;;;;5072036;28;20052;-73
2022/11/03 02:18:21;;;;;;;24.20;16.05;;;17.50;99.90;;;;;;5054305;28;20156;-74
2022/11/03 02:21:02;;;;;;;31.02;17.15;;;17.50;99.90;;;;;;5070800;28;20080;-75
2022/11/03 02:24:12;;;;;;;30.40;18.48;;;17.50;99.90;;;;;;5037244;28;20070;-74
2022/11/03 02:26:42;;;;;;;31.75;20.67;;;17.50;99.90;;;;;;5061363;28;20049;-74
2022/11/03 02:29:10;;;;;;;36.17;22.95;;;17.50;99.90;;;;;;5070562;28;20044;-73
2022/11/03 02:31:41;;;;;;;39.78;25.38;;;17.50;99.90;;;;;;5069192;28;20151;-74
2022/11/03 02:34:35;;;;;;;42.15;29.02;;;17.50;99.90;;;;;;5037278;28;20053;-74
2022/11/03 02:37:09;;;;;;;58.13;36.20;;;17.40;99.90;;;;;;5060813;28;20053;-74
2022/11/03 02:39:43;;;;;;;59.45;42.10;;;17.40;99.90;;;;;;5053871;28;20099;-73
2022/11/03 02:42:12;;;;;;;61.20;36.92;;;17.40;99.90;;;;;;5070457;28;20061;-74
2022/11/03 02:44:42;;;;;;;46.70;31.48;;;17.40;99.90;;;;;;5037067;28;20133;-73
2022/11/03 02:47:11;;;;;;;47.08;30.25;;;17.40;99.90;;;;;;5037251;28;20098;-74
2022/11/03 02:49:47;;;;;;;36.72;23.63;;;17.40;99.90;;;;;;5053438;28;20143;-74
2022/11/03 02:52:45;;;;;;;33.97;21.75;;;17.40;99.90;;;;;;5053526;28;20680;-74
2022/11/03 02:55:48;;;;;;;34.25;20.38;;;17.40;99.90;;;;;;5053599;28;20390;-74
2022/11/03 02:58:24;;;;;;;29.35;18.50;;;17.40;99.90;;;;;;5038316;28;20057;-73
2022/11/03 03:01:18;;;;;;;32.63;17.98;;;17.30;99.90;;;;;;5052495;28;20084;-73
2022/11/03 03:03:57;;;;;;;27.65;17.42;;;17.30;99.90;;;;;;5069759;28;20055;-73
2022/11/03 03:06:32;;;;;;;30.00;16.63;;;17.30;99.90;;;;;;5036604;28;20139;-73
2022/11/03 03:09:06;;;;;;;23.70;15.23;;;17.30;99.90;;;;;;5070606;28;20068;-74
2022/11/03 03:11:37;;;;;;;26.38;15.88;;;17.30;99.90;;;;;;5069584;28;20045;-74
2022/11/03 03:14:19;;;;;;;29.90;17.17;;;17.30;99.90;;;;;;5052892;28;20102;-74
2022/11/03 03:16:58;;;;;;;26.48;16.60;;;17.30;99.90;;;;;;5069328;28;20495;-74
2022/11/03 03:19:56;;;;;;;25.92;17.83;;;17.30;99.90;;;;;;5070806;28;20471;-74
2022/11/03 03:22:43;;;;;;;28.40;16.92;;;17.30;99.90;;;;;;5050716;28;20052;-74
2022/11/03 03:25:14;;;;;;;26.55;16.13;;;17.30;99.90;;;;;;5049164;28;20174;-74
2022/11/03 03:27:47;;;;;;;21.50;16.40;;;17.30;99.90;;;;;;5061450;28;20041;-74
2022/11/03 03:30:17;;;;;;;25.90;15.48;;;17.30;99.90;;;;;;5035899;28;20086;-74
2022/11/03 03:32:51;;;;;;;24.75;16.40;;;17.30;99.90;;;;;;5036193;28;20060;-74
2022/11/03 03:35:31;;;;;;;26.52;16.02;;;17.30;99.90;;;;;;5032623;28;20076;-75
2022/11/03 03:38:04;;;;;;;26.13;17.45;;;17.30;99.90;;;;;;5032338;28;20048;-74
2022/11/03 03:40:35;;;;;;;33.05;17.50;;;17.30;99.90;;;;;;5049024;28;20410;-74
2022/11/03 03:43:05;;;;;;;23.42;16.70;;;17.30;99.90;;;;;;5049327;28;20068;-74
2022/11/03 03:45:34;;;;;;;24.27;14.30;;;17.30;99.90;;;;;;5048274;28;20049;-75
2022/11/03 03:48:03;;;;;;;30.30;18.10;;;17.30;99.90;;;;;;5048621;28;20044;-74
2022/11/03 03:50:35;;;;;;;29.70;18.75;;;17.30;99.90;;;;;;5032287;28;20090;-74
2022/11/03 03:53:05;;;;;;;25.40;16.00;;;17.20;99.90;;;;;;5032288;28;20152;-73
2022/11/03 03:55:40;;;;;;;26.52;16.90;;;17.20;99.90;;;;;;5031818;28;20099;-74
2022/11/03 03:58:11;;;;;;;23.23;16.20;;;17.20;99.90;;;;;;5048667;28;20041;-74
2022/11/03 04:00:41;;;;;;;28.85;17.10;;;17.20;99.90;;;;;;5059115;28;20052;-74
2022/11/03 04:03:21;;;;;;;23.17;16.75;;;17.20;99.90;;;;;;5047081;28;20045;-74
2022/11/03 04:05:49;;;;;;;26.13;18.08;;;17.20;99.90;;;;;;5048574;28;20045;-74
2022/11/03 04:08:17;;;;;;;32.78;17.88;;;17.20;99.90;;;;;;5065530;28;20071;-75
2022/11/03 04:24:39;;;;;;;26.20;17.10;;;17.20;99.90;;;;;;5048197;28;20041;-73
2022/11/03 04:27:24;;;;;;;28.92;16.45;;;17.20;99.90;;;;;;5048110;28;20082;-74
2022/11/03 04:29:55;;;;;;;27.45;17.95;;;17.20;99.90;;;;;;5031625;28;20053;-75
2022/11/03 04:32:22;;;;;;;30.00;17.67;;;17.20;99.90;;;;;;5048138;28;20048;-74
2022/11/03 04:34:50;;;;;;;30.38;18.95;;;17.20;99.90;;;;;;5047804;28;20060;-74
2022/11/03 04:37:17;;;;;;;28.05;18.08;;;17.20;99.90;;;;;;5047524;28;20148;-74
2022/11/03 04:39:45;;;;;;;27.90;17.95;;;17.10;99.90;;;;;;5031073;28;20051;-74
2022/11/03 04:42:19;;;;;;;27.42;18.90;;;17.10;99.90;;;;;;5047324;28;20182;-75
2022/11/03 04:44:48;;;;;;;31.73;19.33;;;17.10;99.90;;;;;;5047882;28;20053;-74
2022/11/03 04:47:17;;;;;;;31.10;17.50;;;17.10;99.90;;;;;;5047601;28;20406;-74
2022/11/03 04:49:46;;;;;;;29.13;18.98;;;17.10;99.90;;;;;;5047365;28;20045;-74
2022/11/03 04:52:20;;;;;;;31.83;18.27;;;17.10;99.90;;;;;;5048492;28;20069;-74
2022/11/03 04:54:51;;;;;;;29.45;18.95;;;17.10;99.90;;;;;;5047802;28;20067;-75
2022/11/03 04:57:19;;;;;;;26.05;18.65;;;17.10;99.90;;;;;;5030715;28;20506;-74
2022/11/03 04:59:51;;;;;;;33.60;16.83;;;17.10;99.90;;;;;;5047304;28;20206;-74
2022/11/03 05:02:20;;;;;;;29.05;18.23;;;17.10;99.90;;;;;;5031161;28;20067;-74
2022/11/03 05:04:48;;;;;;;34.30;17.35;;;17.00;99.90;;;;;;5049861;28;20048;-74
2022/11/03 05:07:31;;;;;;;24.92;17.73;;;17.10;99.90;;;;;;5014301;28;20041;-74
2022/11/03 05:10:00;;;;;;;32.55;19.33;;;17.10;99.90;;;;;;5048391;28;20033;-74
2022/11/03 05:12:29;;;;;;;25.83;17.50;;;17.10;99.90;;;;;;5030878;28;20044;-74
2022/11/03 05:14:56;;;;;;;24.77;15.88;;;17.10;99.90;;;;;;5047172;28;20126;-75
2022/11/03 05:17:27;;;;;;;26.98;16.38;;;17.10;99.90;;;;;;5047007;28;20502;-74
2022/11/03 05:20:01;;;;;;;26.45;17.00;;;17.10;99.90;;;;;;5046933;28;20073;-74
2022/11/03 05:22:34;;;;;;;26.25;17.42;;;17.10;99.90;;;;;;5030369;28;20529;-76
2022/11/03 05:25:34;;;;;;;25.92;16.48;;;17.20;99.90;;;;;;5049401;28;20456;-74
2022/11/03 05:28:02;;;;;;;32.17;18.45;;;17.20;99.90;;;;;;5037232;28;20059;-75
2022/11/03 05:30:30;;;;;;;26.45;17.77;;;17.20;99.90;;;;;;5034191;28;20041;-74
2022/11/03 05:32:57;;;;;;;28.67;17.92;;;17.20;99.90;;;;;;5052447;28;20048;-74
2022/11/03 05:35:25;;;;;;;31.27;16.13;;;17.20;99.90;;;;;;5051079;28;20049;-74
2022/11/03 05:37:52;;;;;;;27.15;16.77;;;17.20;99.90;;;;;;5045527;28;20076;-74
2022/11/03 05:40:22;;;;;;;25.42;17.83;;;17.30;99.90;;;;;;5072526;28;20047;-75
2022/11/03 05:42:55;;;;;;;29.67;17.55;;;17.30;99.90;;;;;;5054562;28;20090;-76
2022/11/03 05:45:29;;;;;;;27.48;16.45;;;17.30;99.90;;;;;;5071265;28;20105;-74
2022/11/03 05:47:58;;;;;;;25.27;17.38;;;17.40;99.90;;;;;;5054386;28;20059;-74
2022/11/03 05:50:33;;;;;;;25.77;17.17;;;17.40;99.90;;;;;;5070604;28;20037;-74
2022/11/03 05:53:21;;;;;;;31.13;19.52;;;17.50;99.90;;;;;;5054785;28;20080;-75
2022/11/03 05:55:49;;;;;;;25.42;15.63;;;17.50;99.90;;;;;;5054140;28;20049;-78
2022/11/03 05:58:25;;;;;;;25.35;15.68;;;17.50;99.90;;;;;;5065579;28;20036;-74
2022/11/03 06:00:53;;;;;;;;;;;17.60;99.90;;;;;;5052541;28;20398;-74
2022/11/03 06:03:24;;;;;;;26.80;14.00;;;17.60;99.90;;;;;;5052298;28;19920;-73
2022/11/03 06:05:53;;;;;;;24.45;15.07;;;17.60;99.90;;;;;;5050509;28;20044;-74
2022/11/03 06:08:35;;;;;;;25.17;14.60;;;17.60;99.90;;;;;;5050849;28;20043;-74
2022/11/03 06:11:03;;;;;;;27.75;15.18;;;17.70;99.90;;;;;;5051081;28;20045;-73
2022/11/03 06:13:36;;;;;;;27.17;16.17;;;17.80;99.90;;;;;;5050552;28;20491;-74
2022/11/03 06:16:32;;;;;;;25.17;15.60;;;17.90;99.90;;;;;;5051483;28;20037;-73
2022/11/03 06:19:02;;;;;;;22.10;15.43;;;18.30;99.90;;;;;;5050345;28;20196;-74
2022/11/03 06:21:30;;;;;;;24.13;15.10;;;18.90;99.90;;;;;;5033814;28;20049;-74
2022/11/03 06:23:58;;;;;;;24.98;16.48;;;19.30;99.90;;;;;;5033029;28;20158;-74
2022/11/03 06:26:27;;;;;;;26.90;15.15;;;19.90;99.90;;;;;;5034190;28;20146;-75
2022/11/03 06:28:55;;;;;;;25.27;15.18;;;20.60;99.90;;;;;;5033834;28;20049;-74
2022/11/03 06:31:28;;;;;;;20.58;13.60;;;21.40;99.90;;;;;;5050534;28;20045;-74
2022/11/03 06:34:00;;;;;;;17.33;12.93;;;22.00;99.90;;;;;;5050131;28;20542;-74
2022/11/03 06:36:34;;;;;;;17.67;11.38;;;22.50;99.90;;;;;;5049605;28;20606;-74
2022/11/03 06:39:09;;;;;;;16.63;12.13;;;22.80;99.90;;;;;;5033802;28;20041;-74
2022/11/03 06:41:37;;;;;;;18.98;13.02;;;23.10;99.90;;;;;;5049761;28;20045;-73
2022/11/03 06:44:23;;;;;;;16.27;10.27;;;23.50;99.90;;;;;;5032995;28;20057;-73
2022/11/03 06:47:13;;;;;;;17.55;11.15;;;23.70;99.90;;;;;;5049865;28;20083;-74
2022/11/03 06:49:42;;;;;;;15.32;9.55;;;23.80;99.90;;;;;;5033712;28;20064;-74
2022/11/03 06:52:25;;;;;;;15.05;9.57;;;23.90;99.90;;;;;;5053065;28;20049;-74
2022/11/03 06:55:00;;;;;;;15.82;10.48;;;23.80;99.90;;;;;;5053209;28;20426;-75
2022/11/03 06:57:34;;;;;;;14.88;10.45;;;23.80;99.90;;;;;;5069650;28;20040;-74
2022/11/03 07:00:05;;;;;;;13.85;10.10;;;23.80;99.90;;;;;;5053353;28;20043;-74
2022/11/03 07:02:57;;;;;;;15.18;9.48;;;23.80;99.90;;;;;;5070140;28;20068;-74
2022/11/03 07:05:28;;;;;;;11.85;8.07;;;23.90;99.90;;;;;;5069995;28;20056;-73
2022/11/03 07:07:59;;;;;;;12.77;7.97;;;23.90;99.90;;;;;;5068530;28;20055;-73
2022/11/03 07:10:32;;;;;;;16.35;8.65;;;24.00;99.90;;;;;;5053097;28;20483;-74
2022/11/03 07:13:08;;;;;;;17.75;9.40;;;24.10;99.90;;;;;;5036738;28;20052;-73
2022/11/03 07:15:38;;;;;;;12.85;7.53;;;24.20;99.90;;;;;;5052820;28;20048;-73
2022/11/03 07:18:26;;;;;;;12.05;7.75;;;24.40;99.90;;;;;;5069505;28;20506;-73
2022/11/03 07:20:54;;;;;;;14.35;9.80;;;24.50;99.90;;;;;;5070881;28;20041;-72
2022/11/03 07:23:25;;;;;;;12.80;8.20;;;24.60;99.90;;;;;;5052972;28;20151;-73
2022/11/03 07:25:57;;;;;;;11.60;8.90;;;24.70;99.90;;;;;;5036224;28;20151;-73
2022/11/03 07:28:33;;;;;;;15.77;9.25;;;24.70;99.90;;;;;;5036136;28;20048;-73
2022/11/03 07:31:17;;;;;;;14.93;9.35;;;24.70;99.90;;;;;;5069179;28;20041;-73
2022/11/03 07:33:45;;;;;;;13.32;8.75;;;24.60;99.90;;;;;;5050868;28;20166;-74
2022/11/03 07:36:21;;;;;;;11.43;7.97;;;24.50;99.90;;;;;;5049790;28;20048;-73
2022/11/03 07:38:52;;;;;;;12.82;8.63;;;24.50;99.90;;;;;;5065840;28;20442;-73
2022/11/03 07:41:23;;;;;;;12.30;8.98;;;24.40;99.90;;;;;;5066606;28;20057;-73
2022/11/03 07:43:57;;;;;;;12.38;7.53;;;24.30;99.90;;;;;;5048936;28;20162;-75
2022/11/03 07:46:26;;;;;;;12.45;8.18;;;24.20;99.90;;;;;;5016105;28;20047;-73
2022/11/03 07:49:01;;;;;;;14.43;8.52;;;24.10;99.90;;;;;;5048586;28;20044;-73
2022/11/03 07:51:36;;;;;;;11.20;7.40;;;24.10;99.90;;;;;;5050320;28;20499;-73
2022/11/03 07:54:19;;;;;;;13.05;7.18;;;24.10;99.90;;;;;;5032004;28;20525;-73
2022/11/03 07:56:53;;;;;;;13.23;8.57;;;24.10;99.90;;;;;;5016340;28;20049;-73
2022/11/03 07:59:32;;;;;;;13.82;9.13;;;24.10;99.90;;;;;;5043232;28;20048;-74
2022/11/03 08:02:01;;;;;;;13.38;8.15;;;24.20;99.90;;;;;;5068139;28;20037;-73
2022/11/03 08:04:32;;;;;;;13.98;6.95;;;24.20;99.90;;;;;;5068582;28;20044;-73
2022/11/03 08:06:59;;;;;;;12.88;6.95;;;24.30;99.90;;;;;;5068618;28;20037;-73
2022/11/03 08:09:27;;;;;;;10.27;6.57;;;24.30;99.90;;;;;;5068418;28;20048;-73
2022/11/03 08:11:54;;;;;;;8.88;5.80;;;24.40;99.90;;;;;;5068416;28;20129;-73
2022/11/03 08:14:22;;;;;;;10.05;6.28;;;24.50;99.90;;;;;;5067417;28;20510;-73
2022/11/03 08:16:49;;;;;;;8.85;6.05;;;24.50;99.90;;;;;;5051501;28;20411;-72
2022/11/03 08:19:17;;;;;;;9.52;5.80;;;24.70;99.90;;;;;;5068160;28;20045;-73
2022/11/03 08:21:44;;;;;;;7.63;5.10;;;24.80;99.90;;;;;;5068143;28;20063;-73
2022/11/03 08:24:12;;;;;;;9.55;6.20;;;24.90;99.90;;;;;;5068330;28;20390;-74
2022/11/03 08:26:40;;;;;;;10.05;5.00;;;24.90;99.90;;;;;;5051487;28;20075;-73
2022/11/03 08:29:08;;;;;;;7.40;4.82;;;24.80;99.90;;;;;;5034762;28;20135;-73
2022/11/03 08:31:36;;;;;;;8.68;5.60;;;24.70;99.90;;;;;;5069588;28;20037;-73
2022/11/03 08:34:03;;;;;;;11.60;5.07;;;24.40;99.90;;;;;;5067581;28;20040;-72
2022/11/03 08:36:31;;;;;;;11.02;4.60;;;24.20;99.90;;;;;;5046976;28;20088;-74
2022/11/03 08:38:58;;;;;;;6.50;4.28;;;24.10;99.90;;;;;;5049082;28;20045;-73
2022/11/03 08:41:26;;;;;;;9.93;4.57;;;24.00;99.90;;;;;;5064167;28;20139;-72
2022/11/03 08:43:53;;;;;;;7.78;4.20;;;23.90;99.90;;;;;;5063892;28;20095;-73
2022/11/03 08:46:21;;;;;;;7.93;3.63;;;23.90;99.90;;;;;;5047686;28;20074;-72
2022/11/03 08:48:48;;;;;;;5.65;4.65;;;24.20;99.90;;;;;;5047649;28;20139;-72
2022/11/03 08:51:16;;;;;;;6.00;3.67;;;24.50;99.90;;;;;;5047437;28;20510;-73
2022/11/03 08:53:43;;;;;;;8.38;4.95;;;24.70;99.90;;;;;;5047715;28;20057;-73
2022/11/03 08:56:11;;;;;;;6.82;4.07;;;24.90;99.90;;;;;;5063388;28;20099;-73
2022/11/03 08:58:39;;;;;;;86.90;11.00;;;25.20;99.90;;;;;;5064059;28;20041;-73
2022/11/03 09:01:08;;;;;;;10.23;4.35;;;25.40;99.90;;;;;;5048592;28;20044;-72
2022/11/03 09:03:36;;;;;;;6.72;3.90;;;25.60;99.90;;;;;;5047279;28;20475;-73
2022/11/03 09:06:04;;;;;;;9.45;4.53;;;25.80;99.90;;;;;;5063550;28;20099;-73
2022/11/03 09:08:31;;;;;;;10.65;4.95;;;25.90;99.90;;;;;;5048710;28;20064;-74
2022/11/03 09:11:19;;;;;;;6.57;4.05;;;26.00;99.90;;;;;;5047277;28;20044;-73
2022/11/03 09:13:46;;;;;;;5.97;3.40;;;26.00;99.90;;;;;;5047351;28;20155;-73
2022/11/03 09:16:14;;;;;;;6.93;3.63;;;26.00;99.90;;;;;;5046759;28;20044;-73
2022/11/03 09:18:42;;;;;;;5.93;3.58;;;25.90;99.90;;;;;;5047662;28;20052;-73
2022/11/03 09:21:09;;;;;;;5.68;3.35;;;25.90;99.90;;;;;;5047180;28;20114;-73
2022/11/03 09:23:37;;;;;;;8.77;6.45;;;26.10;99.90;;;;;;5063738;28;20155;-73
2022/11/03 09:26:05;;;;;;;5.13;3.50;;;26.20;99.90;;;;;;5046992;28;20041;-73
2022/11/03 09:28:33;;;;;;;5.60;2.80;;;26.40;99.90;;;;;;5030134;28;20503;-73
2022/11/03 09:31:00;;;;;;;6.32;3.88;;;26.50;99.90;;;;;;5047265;28;20053;-73
2022/11/03 09:33:28;;;;;;;7.30;3.05;;;26.50;99.90;;;;;;5064016;28;20087;-73
2022/11/03 09:35:55;;;;;;;6.40;3.30;;;26.60;99.90;;;;;;5064722;28;20040;-73
2022/11/03 09:38:23;;;;;;;5.50;3.20;;;26.70;99.90;;;;;;5033374;28;20060;-73
2022/11/03 09:40:54;;;;;;;7.75;4.20;;;26.80;99.90;;;;;;5066689;28;20179;-73
2022/11/03 09:43:22;;;;;;;7.05;3.50;;;26.90;99.90;;;;;;5050635;28;20041;-72
2022/11/03 09:45:49;;;;;;;8.77;3.80;;;26.90;99.90;;;;;;5066306;28;20478;-73
2022/11/03 09:48:16;;;;;;;6.70;3.50;;;27.00;99.90;;;;;;5049892;28;20045;-73
2022/11/03 09:50:48;;;;;;;7.38;3.35;;;26.90;99.90;;;;;;5066363;28;20175;-73
2022/11/03 09:53:16;;;;;;;9.05;3.78;;;26.90;99.90;;;;;;5066741;28;20053;-73
2022/11/03 09:55:43;;;;;;;10.65;3.97;;;26.90;99.90;;;;;;5050236;28;20060;-73
2022/11/03 09:58:16;;;;;;;5.75;3.63;;;26.90;99.90;;;;;;5066854;28;20677;-73
2022/11/03 10:00:44;;;;;;;4.68;2.85;;;26.80;99.90;;;;;;5068014;28;20127;-73
2022/11/03 10:03:15;;;;;;;7.75;4.03;;;26.70;99.90;;;;;;5033597;28;20048;-74
2022/11/03 10:05:44;;;;;;;8.35;3.78;;;26.70;99.90;;;;;;5033127;28;20071;-73
2022/11/03 10:08:24;;;;;;;8.00;4.13;;;26.90;99.90;;;;;;5021825;28;20094;-73
2022/11/03 10:10:53;;;;;;;7.00;3.80;;;26.80;99.90;;;;;;5032898;28;20132;-72
2022/11/03 10:13:28;;;;;;;7.25;3.40;;;26.80;99.90;;;;;;5042414;28;20388;-72
2022/11/03 10:15:57;;;;;;;8.52;4.03;;;26.70;99.90;;;;;;5060753;28;20144;-73
2022/11/03 10:18:26;;;;;;;6.30;3.38;;;26.50;99.90;;;;;;5062488;28;20049;-72
2022/11/03 10:20:54;;;;;;;8.43;4.20;;;26.60;99.90;;;;;;5029591;28;20074;-73
2022/11/03 10:23:22;;;;;;;11.27;4.32;;;26.60;99.90;;;;;;5050197;28;20530;-73
2022/11/03 10:25:49;;;;;;;9.82;4.20;;;26.70;99.90;;;;;;5049816;28;20195;-76
2022/11/03 10:28:21;;;;;;;7.15;3.88;;;26.70;99.90;;;;;;5033327;28;20045;-73
2022/11/03 10:31:09;;;;;;;10.07;3.65;;;26.80;99.90;;;;;;5033507;28;20045;-74
2022/11/03 10:33:55;;;;;;;7.45;3.78;;;26.90;99.90;;;;;;5059752;28;20056;-73
2022/11/03 10:36:28;;;;;;;6.60;4.15;;;26.90;99.90;;;;;;5051162;28;20054;-74
2022/11/03 10:38:56;;;;;;;8.27;4.25;;;27.00;99.90;;;;;;5051480;28;20091;-73
2022/11/03 10:41:31;;;;;;;7.40;3.75;;;27.00;99.90;;;;;;5033767;28;20048;-73
2022/11/03 10:44:11;;;;;;;8.38;5.47;;;27.10;99.90;;;;;;5050989;28;20049;-73
2022/11/03 10:46:53;;;;;;;7.97;5.15;;;27.10;99.90;;;;;;5033590;28;20057;-74
2022/11/03 10:49:21;;;;;;;8.15;5.18;;;27.10;99.90;;;;;;5051221;28;20048;-74
2022/11/03 10:51:51;;;;;;;10.30;3.22;;;27.10;99.90;;;;;;5049781;28;20162;-73
2022/11/03 10:54:21;;;;;;;7.70;4.55;;;27.10;99.90;;;;;;5033220;28;20102;-73
2022/11/03 10:56:50;;;;;;;7.15;4.32;;;27.10;99.90;;;;;;5049824;28;20037;-74
2022/11/03 10:59:30;;;;;;;9.82;4.68;;;27.00;99.90;;;;;;5035922;28;20505;-74
2022/11/03 11:01:59;;;;;;;8.68;4.22;;;27.00;99.90;;;;;;5064360;28;20101;-74
2022/11/03 11:04:27;;;;;;;6.32;4.30;;;27.10;99.90;;;;;;5068249;28;20138;-74
2022/11/03 11:06:54;;;;;;;9.05;4.75;;;27.00;99.90;;;;;;5051293;28;20562;-75
2022/11/03 11:09:24;;;;;;;7.25;4.78;;;27.00;99.90;;;;;;5040839;28;20136;-73
2022/11/03 11:12:05;;;;;;;9.82;4.80;;;27.00;99.90;;;;;;5076405;28;20056;-74
2022/11/03 11:14:38;;;;;;;7.50;4.00;;;26.80;99.90;;;;;;5064071;28;20071;-74
2022/11/03 11:17:38;;;;;;;9.55;4.50;;;26.90;99.90;;;;;;5036392;28;20083;-74
2022/11/03 11:20:17;;;;;;;8.45;4.78;;;26.80;99.90;;;;;;5066486;28;20032;-73
2022/11/03 11:22:45;;;;;;;11.65;4.50;;;26.80;99.90;;;;;;5048313;28;20102;-74
2022/11/03 11:25:12;;;;;;;8.48;4.57;;;26.80;99.90;;;;;;5056999;28;20053;-76
2022/11/03 11:27:40;;;;;;;18.75;5.65;;;26.80;99.90;;;;;;5049096;28;20132;-76
2022/11/03 11:30:21;;;;;;;7.88;4.35;;;26.80;99.90;;;;;;5048726;28;20049;-73
2022/11/03 11:32:57;;;;;;;9.93;4.85;;;26.80;99.90;;;;;;5016480;28;20175;-74
2022/11/03 11:35:25;;;;;;;8.38;4.82;;;26.70;99.90;;;;;;5049296;28;20456;-72
2022/11/03 11:37:53;;;;;;;14.02;9.10;;;26.70;99.90;;;;;;5047841;28;20531;-74
2022/11/03 11:40:24;;;;;;;69.05;62.75;;;26.70;99.90;;;;;;5049858;28;20045;-74
2022/11/03 11:43:10;;;;;;;16.45;13.32;;;26.80;99.90;;;;;;5048854;28;20045;-73
2022/11/03 11:46:15;;;;;;;7.88;6.75;;;26.60;99.90;;;;;;5027837;28;20049;-74
2022/11/03 11:48:45;;;;;;;7.55;4.88;;;26.60;99.90;;;;;;5063405;28;20083;-73
2022/11/03 11:51:12;;;;;;;7.55;4.32;;;26.60;99.90;;;;;;5049776;28;20045;-73
2022/11/03 11:53:41;;;;;;;9.57;5.38;;;26.50;99.90;;;;;;5063013;28;20516;-74
2022/11/03 11:56:15;;;;;;;9.50;5.90;;;26.40;99.90;;;;;;5049254;28;20049;-75
2022/11/03 11:58:48;;;;;;;9.50;4.82;;;26.30;99.90;;;;;;5031712;28;20088;-73
2022/11/03 12:01:28;;;;;;;12.32;5.93;;;26.10;99.90;;;;;;5048157;28;20175;-75
2022/11/03 12:04:24;;;;;;;10.82;6.20;;;26.10;99.90;;;;;;5047533;28;20522;-74
2022/11/03 12:06:51;;;;;;;15.80;6.60;;;26.10;99.90;;;;;;5031016;28;20388;-73
2022/11/03 12:09:26;;;;;;;10.80;5.50;;;26.30;99.90;;;;;;5041675;28;20395;-75
2022/11/03 12:11:59;;;;;;;431.70;237.23;;;26.40;99.90;;;;;;5066780;28;20470;-74
2022/11/03 12:14:33;;;;;;;;;;;26.40;99.90;;;;;;5069012;28;20056;-74
2022/11/03 12:17:16;;;;;;;177.57;98.22;;;26.50;99.90;;;;;;5064234;28;20290;-74
2022/11/03 12:19:45;;;;;;;24.63;12.05;;;26.50;99.90;;;;;;5032826;28;20029;-73
2022/11/03 12:22:22;;;;;;;10.65;5.85;;;26.30;99.90;;;;;;5067436;28;20068;-74
2022/11/03 12:24:51;;;;;;;11.13;4.72;;;26.40;99.90;;;;;;5057191;28;20492;-74
2022/11/03 12:27:18;;;;;;;9.55;5.18;;;26.40;99.90;;;;;;5047943;28;20132;-74
2022/11/03 12:29:46;;;;;;;10.15;5.20;;;26.30;99.90;;;;;;5049111;28;20407;-73
2022/11/03 12:32:13;;;;;;;11.13;4.68;;;26.20;99.90;;;;;;5034407;28;20055;-74
2022/11/03 12:34:46;;;;;;;11.13;5.28;;;26.20;99.90;;;;;;5036590;28;20128;-73
2022/11/03 12:37:14;;;;;;;9.75;5.40;;;26.20;99.90;;;;;;5062476;28;20059;-73
2022/11/03 12:39:41;;;;;;;9.75;5.32;;;26.00;99.90;;;;;;5056853;28;20044;-73
2022/11/03 12:42:09;;;;;;;7.10;5.30;;;25.80;99.90;;;;;;5062215;28;20115;-73
2022/11/03 12:44:36;;;;;;;9.18;5.75;;;25.80;99.90;;;;;;5062275;28;20041;-72
2022/11/03 12:47:07;;;;;;;9.13;5.95;;;25.90;99.90;;;;;;5063421;28;20052;-72
2022/11/03 12:49:35;;;;;;;11.80;5.47;;;25.80;99.90;;;;;;5063302;28;20167;-72
2022/11/03 12:52:05;;;;;;;11.73;5.75;;;25.90;99.90;;;;;;5062335;28;20106;-73
2022/11/03 12:54:34;;;;;;;14.57;5.15;;;25.90;99.90;;;;;;5061258;28;20127;-74
2022/11/03 12:57:02;;;;;;;10.98;5.75;;;25.90;99.90;;;;;;5054267;28;20155;-73
2022/11/03 12:59:29;;;;;;;9.40;4.65;;;25.80;99.90;;;;;;5064714;28;20345;-73
2022/11/03 13:01:57;;;;;;;8.68;3.95;;;25.70;99.90;;;;;;5046259;28;20045;-73
2022/11/03 13:04:25;;;;;;;7.72;4.65;;;25.70;99.90;;;;;;5034853;28;20098;-73
2022/11/03 13:06:53;;;;;;;10.30;4.10;;;25.60;99.90;;;;;;5066871;28;20052;-74
2022/11/03 13:09:20;;;;;;;10.00;5.32;;;25.60;99.90;;;;;;5063450;28;20106;-73
2022/11/03 13:14:34;;;;;;;7.30;5.30;;;25.50;99.90;;;;;;5059186;28;20119;-73
2022/11/03 13:17:02;;;;;;;8.10;5.10;;;25.40;99.90;;;;;;5029013;28;20091;-73
2022/11/03 13:19:30;;;;;;;8.75;6.22;;;25.40;99.90;;;;;;5040743;28;20390;-75
2022/11/03 13:21:57;;;;;;;9.38;4.65;;;25.30;99.90;;;;;;5055590;28;20451;-74